Time;durP1;ratioP1;P1;durP2;ratioP2;P2;SDS_P1;SDS_P2;PMS_P1;PMS_P2;Temp;Humidity;BMP_temperature;BMP_pressure;BME280_temperature;BME280_humidity;BME280_pressure;Samples;Min_cycle;Max_cycle;Signal;HPM_P1;HPM_P2
2023/10/19 00:00:44;;;;;;;23.52;15.27;;;;;;;7.07;80.00;99824.00;5006840;28;20156;-56
2023/10/19 00:03:12;;;;;;;25.08;15.23;;;;;;;7.05;80.78;99838.09;5004004;28;20153;-58
2023/10/19 00:05:41;;;;;;;24.63;14.82;;;;;;;7.04;80.50;99824.19;5003544;28;20082;-52
2023/10/19 00:08:21;;;;;;;22.08;15.18;;;;;;;7.06;80.80;99822.28;5000745;28;20061;-55
2023/10/19 00:11:02;;;;;;;19.73;14.90;;;;;;;7.05;80.55;99827.63;5005762;28;20108;-55
2023/10/19 00:13:30;;;;;;;25.55;15.68;;;;;;;7.07;80.51;99828.41;4998389;28;20044;-57
2023/10/19 00:15:57;;;;;;;23.17;14.40;;;;;;;7.06;80.45;99826.69;5003205;28;20058;-52
2023/10/19 00:18:24;;;;;;;25.52;15.10;;;;;;;7.01;80.23;99821.72;5001070;28;20045;-51
2023/10/19 00:23:30;;;;;;;20.77;15.52;;;;;;;7.03;80.49;99819.88;5003470;28;20125;-54
2023/10/19 00:26:15;;;;;;;20.88;15.70;;;;;;;7.00;80.48;99800.88;5002097;28;20141;-55
2023/10/19 00:28:45;;;;;;;22.52;14.07;;;;;;;6.98;80.63;99798.38;5001923;28;20157;-55
2023/10/19 00:31:13;;;;;;;20.52;14.27;;;;;;;6.98;80.83;99793.13;5002712;28;20081;-52
2023/10/19 00:33:41;;;;;;;20.80;14.98;;;;;;;6.96;80.64;99794.97;5001328;28;20050;-51
2023/10/19 00:36:09;;;;;;;21.35;14.95;;;;;;;6.94;80.90;99786.38;5000439;28;20423;-58
2023/10/19 00:41:12;;;;;;;20.77;14.55;;;;;;;6.88;80.87;99767.56;5003184;28;20088;-53
2023/10/19 00:43:44;;;;;;;21.80;16.73;;;;;;;6.84;82.04;99764.28;4994478;28;20104;-57
2023/10/19 00:48:56;;;;;;;26.17;16.70;;;;;;;6.81;82.04;99754.00;5024719;28;20070;-56
2023/10/19 00:54:10;;;;;;;24.85;17.00;;;;;;;6.80;82.09;99736.63;5003875;28;20100;-56
2023/10/19 00:56:41;;;;;;;22.00;16.25;;;;;;;6.75;82.10;99736.88;5003035;28;20411;-54
2023/10/19 00:59:14;;;;;;;28.52;17.10;;;;;;;6.74;82.33;99736.97;5000898;28;20095;-57
2023/10/19 01:01:47;;;;;;;24.88;16.83;;;;;;;6.73;82.66;99740.50;4998790;28;20074;-56
2023/10/19 01:04:20;;;;;;;25.45;15.80;;;;;;;6.72;82.74;99739.69;5001243;28;20147;-55
2023/10/19 01:07:12;;;;;;;23.13;15.25;;;;;;;6.71;82.73;99732.78;4998016;28;20520;-55
2023/10/19 01:09:40;;;;;;;25.23;16.52;;;;;;;6.70;82.64;99733.69;5001497;28;20092;-58
2023/10/19 01:15:36;;;;;;;22.48;17.10;;;;;;;6.69;83.13;99724.16;4999662;28;20145;-59
2023/10/19 01:18:02;;;;;;;27.27;17.90;;;;;;;6.64;83.52;99713.13;4999655;28;20153;-55
2023/10/19 01:28:48;;;;;;;25.80;16.92;;;;;;;6.72;82.81;99702.22;5002275;28;20092;-56
2023/10/19 01:31:30;;;;;;;24.38;17.25;;;;;;;6.71;83.19;99695.28;5006477;28;20101;-54
2023/10/19 01:34:00;;;;;;;25.08;17.10;;;;;;;6.70;82.84;99691.00;5005332;28;20161;-59
2023/10/19 01:36:28;;;;;;;24.60;16.23;;;;;;;6.70;82.91;99698.84;5003628;28;20133;-54
2023/10/19 01:39:00;;;;;;;22.23;16.45;;;;;;;6.71;83.31;99690.06;5008555;28;20049;-55
2023/10/19 01:41:30;;;;;;;27.05;17.73;;;;;;;6.67;83.83;99683.34;5001334;28;20085;-55
2023/10/19 01:44:04;;;;;;;25.83;17.52;;;;;;;6.67;83.74;99681.56;5004923;28;20078;-56
2023/10/19 01:46:35;;;;;;;26.27;16.95;;;;;;;6.66;83.58;99669.38;5006031;28;20387;-52
2023/10/19 01:49:04;;;;;;;25.73;17.20;;;;;;;6.66;83.62;99660.72;5006405;28;20164;-56
2023/10/19 01:51:33;;;;;;;26.58;16.20;;;;;;;6.67;83.13;99667.66;5038718;28;20099;-56
2023/10/19 01:54:03;;;;;;;26.20;16.92;;;;;;;6.67;83.28;99670.25;5008822;28;20077;-58
2023/10/19 01:56:33;;;;;;;24.70;16.58;;;;;;;6.69;83.62;99647.47;5010910;28;20069;-56
2023/10/19 01:59:01;;;;;;;24.70;16.83;;;;;;;6.68;83.63;99640.56;5003084;28;20042;-58
2023/10/19 02:01:32;;;;;;;27.13;17.35;;;;;;;6.66;83.58;99632.78;5001574;28;20053;-55
2023/10/19 02:04:01;;;;;;;27.33;17.80;;;;;;;6.72;83.63;99634.22;5003731;28;20054;-57
2023/10/19 02:06:40;;;;;;;28.80;17.17;;;;;;;6.71;83.34;99619.44;5004323;28;20145;-52
2023/10/19 02:09:23;;;;;;;22.80;16.90;;;;;;;6.71;83.60;99622.91;5009294;28;20054;-57
2023/10/19 02:11:58;;;;;;;25.98;18.30;;;;;;;6.74;83.21;99624.50;5003863;28;20058;-61
2023/10/19 02:14:26;;;;;;;22.80;16.75;;;;;;;6.74;83.25;99622.72;5008797;28;20532;-56
2023/10/19 02:17:03;;;;;;;21.98;16.63;;;;;;;6.77;83.58;99626.94;5011167;28;20133;-58
2023/10/19 02:19:31;;;;;;;24.73;16.63;;;;;;;6.80;83.08;99621.53;5005100;28;20050;-55
2023/10/19 02:22:08;;;;;;;23.05;16.38;;;;;;;6.83;83.46;99624.78;5008336;28;20073;-59
2023/10/19 02:24:35;;;;;;;25.27;16.45;;;;;;;6.89;82.99;99609.66;5028286;28;20459;-54
2023/10/19 02:27:03;;;;;;;24.17;16.10;;;;;;;6.90;83.29;99619.22;5009686;28;20154;-56
2023/10/19 02:29:31;;;;;;;24.58;18.00;;;;;;;6.91;82.76;99605.19;5008979;28;20073;-56
2023/10/19 02:32:05;;;;;;;28.33;17.50;;;;;;;6.90;82.86;99600.88;5008549;28;20077;-54
2023/10/19 02:34:32;;;;;;;27.35;18.33;;;;;;;6.89;82.97;99594.81;5006374;28;20058;-59
2023/10/19 02:37:00;;;;;;;24.55;17.67;;;;;;;6.88;82.71;99587.88;5006412;28;20129;-51
2023/10/19 02:39:28;;;;;;;28.35;17.67;;;;;;;6.87;82.71;99591.44;5010382;28;20104;-57
2023/10/19 02:41:56;;;;;;;24.60;18.08;;;;;;;6.90;82.27;99590.44;5004471;28;20135;-57
2023/10/19 02:44:25;;;;;;;25.73;17.52;;;;;;;6.92;82.57;99586.78;5002769;28;20154;-55
2023/10/19 02:46:59;;;;;;;27.02;18.23;;;;;;;6.91;82.46;99587.72;5006726;28;20045;-55
2023/10/19 02:49:29;;;;;;;22.63;16.83;;;;;;;6.90;82.23;99579.97;5033976;28;20112;-53
2023/10/19 02:52:04;;;;;;;26.67;18.08;;;;;;;6.90;82.56;99570.34;5010620;28;20515;-61
2023/10/19 02:54:34;;;;;;;32.65;18.80;;;;;;;6.87;81.91;99570.50;5005045;28;20456;-57
2023/10/19 02:57:06;;;;;;;23.83;17.08;;;;;;;6.84;82.84;99570.69;5005644;28;20571;-54
2023/10/19 02:59:33;;;;;;;30.65;18.33;;;;;;;6.86;82.34;99568.84;5007241;28;20085;-58
2023/10/19 03:02:06;;;;;;;24.30;18.23;;;;;;;6.88;82.92;99566.13;5004345;28;20054;-56
2023/10/19 03:04:37;;;;;;;29.63;18.27;;;;;;;6.88;82.77;99560.88;5008004;28;20459;-50
2023/10/19 03:07:05;;;;;;;24.17;17.65;;;;;;;6.90;82.76;99557.25;5006726;28;20508;-57
2023/10/19 03:09:36;;;;;;;25.20;18.08;;;;;;;6.90;82.20;99554.63;5005749;28;20548;-55
2023/10/19 03:12:05;;;;;;;24.65;16.98;;;;;;;6.93;82.21;99549.19;5006392;28;20085;-58
2023/10/19 03:14:32;;;;;;;26.23;18.08;;;;;;;6.90;82.49;99549.41;4996394;28;20468;-55
2023/10/19 03:17:00;;;;;;;24.55;17.33;;;;;;;6.90;82.35;99548.56;4996030;28;20108;-55
2023/10/19 03:19:28;;;;;;;26.13;17.52;;;;;;;6.92;82.23;99539.66;5005154;28;20081;-51
2023/10/19 03:21:59;;;;;;;27.33;18.38;;;;;;;6.92;82.66;99539.66;5034017;28;20567;-56
2023/10/19 03:24:36;;;;;;;27.13;16.77;;;;;;;6.93;82.42;99535.28;5003356;28;20112;-51
2023/10/19 03:27:17;;;;;;;25.05;17.35;;;;;;;6.90;82.18;99528.47;5013431;28;20425;-58
2023/10/19 03:29:47;;;;;;;24.08;17.45;;;;;;;6.87;82.53;99528.66;5004428;28;20145;-55
2023/10/19 03:32:16;;;;;;;26.67;17.27;;;;;;;6.89;82.44;99521.56;5004079;28;20073;-53
2023/10/19 03:34:47;;;;;;;27.58;18.52;;;;;;;6.88;82.13;99522.47;5008467;28;20107;-52
2023/10/19 03:37:17;;;;;;;32.47;19.00;;;;;;;6.88;82.21;99525.09;5005801;28;20037;-54
2023/10/19 03:39:46;;;;;;;26.73;18.42;;;;;;;6.90;82.70;99522.41;5005400;28;20481;-55
2023/10/19 03:42:14;;;;;;;29.05;19.65;;;;;;;6.90;82.66;99517.16;5007373;28;20369;-57
2023/10/19 03:44:50;;;;;;;31.33;19.15;;;;;;;6.92;82.67;99516.13;5004880;28;20062;-59
2023/10/19 03:47:20;;;;;;;25.45;19.02;;;;;;;6.91;82.06;99511.84;5010120;28;20073;-57
2023/10/19 03:49:51;;;;;;;27.90;20.50;;;;;;;6.89;82.66;99503.25;5003178;28;20050;-55
2023/10/19 03:54:47;;;;;;;30.45;20.42;;;;;;;6.92;82.56;99484.72;5004626;28;20057;-54
2023/10/19 03:57:19;;;;;;;29.83;19.10;;;;;;;6.94;82.42;99489.88;5002490;28;20049;-57
2023/10/19 03:59:51;;;;;;;25.38;18.73;;;;;;;6.93;82.18;99491.63;5006616;28;20054;-58
2023/10/19 04:02:35;;;;;;;28.13;20.33;;;;;;;6.92;82.36;99489.13;5002507;28;20060;-57
2023/10/19 04:05:03;;;;;;;29.38;18.17;;;;;;;6.92;82.87;99489.13;5002056;28;20081;-58
2023/10/19 04:07:33;;;;;;;28.73;19.38;;;;;;;6.87;82.83;99486.78;4991471;28;20185;-58
2023/10/19 04:12:36;;;;;;;29.98;18.80;;;;;;;6.89;83.07;99474.47;4993943;28;20111;-56
2023/10/19 04:15:15;;;;;;;34.67;19.58;;;;;;;6.91;82.87;99477.81;5002684;28;20140;-57
2023/10/19 04:17:47;;;;;;;26.20;17.58;;;;;;;6.95;83.00;99479.31;5007680;28;20420;-52
2023/10/19 04:22:48;;;;;;;28.73;18.95;;;;;;;6.98;82.43;99459.94;4998055;28;20152;-56
2023/10/19 04:25:16;;;;;;;28.17;18.67;;;;;;;7.00;82.78;99466.78;5001744;28;20524;-59
2023/10/19 04:27:45;;;;;;;25.90;18.33;;;;;;;6.99;82.74;99459.88;4991031;28;20244;-58
2023/10/19 04:30:16;;;;;;;29.83;19.95;;;;;;;7.00;83.02;99455.47;5002969;28;20046;-54
2023/10/19 04:32:45;;;;;;;29.40;19.27;;;;;;;6.99;82.83;99457.25;4995908;28;20066;-56
2023/10/19 04:35:14;;;;;;;32.25;19.92;;;;;;;6.98;82.58;99462.56;4999605;28;20452;-51
2023/10/19 04:37:42;;;;;;;28.08;18.52;;;;;;;6.97;83.07;99453.03;4998037;28;20054;-54
2023/10/19 04:40:10;;;;;;;32.33;20.77;;;;;;;6.96;82.79;99452.22;5004544;28;20054;-55
2023/10/19 04:42:38;;;;;;;29.98;19.95;;;;;;;6.92;82.57;99448.09;5000484;28;20061;-52
2023/10/19 04:45:06;;;;;;;27.73;19.17;;;;;;;6.88;82.89;99437.94;5002111;28;20078;-57
2023/10/19 04:47:35;;;;;;;28.30;19.20;;;;;;;6.81;83.17;99440.09;4994536;28;20084;-55
2023/10/19 04:50:04;;;;;;;29.30;19.60;;;;;;;6.80;83.33;99433.19;4998801;28;20116;-56
2023/10/19 04:52:32;;;;;;;30.05;20.10;;;;;;;6.81;83.53;99427.84;5002202;28;20105;-56
2023/10/19 04:57:52;;;;;;;27.63;19.40;;;;;;;6.75;83.32;99427.38;5024367;28;20081;-54
2023/10/19 05:00:20;;;;;;;32.38;20.35;;;;;;;6.75;83.51;99415.13;5038031;28;20108;-57
2023/10/19 05:02:48;;;;;;;27.25;19.25;;;;;;;6.72;83.53;99420.59;5007353;28;20069;-54
2023/10/19 05:05:17;;;;;;;33.35;20.58;;;;;;;6.73;83.90;99410.97;4998948;28;20721;-56
2023/10/19 05:07:44;;;;;;;35.67;21.23;;;;;;;6.73;83.94;99421.41;5008392;28;20149;-54
2023/10/19 05:10:12;;;;;;;28.02;20.95;;;;;;;6.71;83.73;99418.03;5010032;28;20054;-55
2023/10/19 05:12:39;;;;;;;30.73;19.13;;;;;;;6.68;84.00;99416.47;5001561;28;20143;-57
2023/10/19 05:15:08;;;;;;;34.25;20.40;;;;;;;6.73;84.56;99416.19;4998038;28;20112;-59
2023/10/19 05:17:35;;;;;;;33.10;21.83;;;;;;;6.84;87.67;99413.72;5000185;28;20046;-55
2023/10/19 05:20:05;;;;;;;32.40;20.80;;;;;;;6.84;85.58;99413.72;5004511;28;20081;-57
2023/10/19 05:22:32;;;;;;;33.42;21.20;;;;;;;6.84;84.78;99413.72;5006206;28;20502;-53
2023/10/19 05:25:01;;;;;;;32.97;20.00;;;;;;;6.80;84.74;99409.66;4996801;28;20547;-54
2023/10/19 05:27:28;;;;;;;28.63;21.13;;;;;;;6.80;85.91;99402.66;5003111;28;20058;-59
2023/10/19 05:29:56;;;;;;;30.40;20.40;;;;;;;6.81;84.61;99395.63;5004400;28;20050;-54
2023/10/19 05:32:24;;;;;;;32.70;21.30;;;;;;;6.72;84.77;99402.28;4998648;28;20049;-55
2023/10/19 05:34:52;;;;;;;32.95;21.35;;;;;;;6.71;84.67;99404.97;5012837;28;20080;-55
2023/10/19 05:37:19;;;;;;;30.98;21.92;;;;;;;6.69;84.99;99396.41;5006498;28;20046;-59
2023/10/19 05:39:47;;;;;;;28.52;21.15;;;;;;;6.64;85.49;99406.31;5002802;28;20057;-52
2023/10/19 05:42:14;;;;;;;30.83;22.08;;;;;;;6.60;85.37;99408.25;5010434;28;20046;-54
2023/10/19 05:44:41;;;;;;;38.45;21.88;;;;;;;6.57;85.47;99406.69;4999910;28;20077;-54
2023/10/19 05:47:09;;;;;;;32.63;22.55;;;;;;;6.55;86.30;99411.16;5002917;28;20148;-57
2023/10/19 05:49:36;;;;;;;33.67;22.00;;;;;;;6.53;87.45;99412.22;4996459;28;20077;-58
2023/10/19 05:52:03;;;;;;;35.90;22.52;;;;;;;6.53;86.53;99420.88;5001247;28;20112;-59
2023/10/19 05:54:30;;;;;;;38.65;22.75;;;;;;;6.53;87.19;99413.03;5003848;28;20053;-57
2023/10/19 05:56:58;;;;;;;35.30;22.55;;;;;;;6.51;86.76;99412.28;5004558;28;20216;-54
2023/10/19 05:59:26;;;;;;;31.40;21.05;;;;;;;6.56;86.88;99418.06;5000821;28;20507;-58
2023/10/19 06:01:54;;;;;;;31.83;22.00;;;;;;;6.57;86.95;99419.78;5000700;28;20148;-56
2023/10/19 06:04:21;;;;;;;38.03;23.60;;;;;;;6.56;87.33;99410.22;4996131;28;20060;-59
2023/10/19 06:06:49;;;;;;;33.40;21.92;;;;;;;6.51;87.34;99414.06;5001196;28;20046;-57
2023/10/19 06:09:17;;;;;;;33.70;21.25;;;;;;;6.51;87.18;99414.06;5011787;23;20501;-73
2023/10/19 06:11:45;;;;;;;32.85;22.23;;;;;;;6.50;89.24;99405.38;4971201;28;20140;-73
2023/10/19 06:14:13;;;;;;;32.78;23.30;;;;;;;6.52;88.56;99400.88;5003641;28;20085;-74
2023/10/19 06:16:40;;;;;;;33.28;23.75;;;;;;;6.50;89.09;99394.09;5010219;28;20077;-74
2023/10/19 06:19:08;;;;;;;46.67;24.73;;;;;;;6.50;89.14;99394.09;5022354;28;20055;-74
2023/10/19 06:21:37;;;;;;;36.33;23.65;;;;;;;6.52;89.86;99384.34;5012637;28;20100;-73
2023/10/19 06:24:05;;;;;;;34.38;22.92;;;;;;;6.51;90.89;99373.06;5023335;28;20141;-74
2023/10/19 06:26:32;;;;;;;31.52;22.25;;;;;;;6.49;90.63;99381.97;4990444;28;20125;-75
2023/10/19 06:29:01;;;;;;;30.42;21.20;;;;;;;6.48;91.34;99375.84;4988422;28;20141;-74
2023/10/19 06:31:29;;;;;;;31.90;21.92;;;;;;;6.53;91.86;99368.59;5003363;28;20120;-74
2023/10/19 06:33:58;;;;;;;36.50;23.48;;;;;;;6.55;92.12;99385.00;4987756;28;20480;-74
2023/10/19 06:36:25;;;;;;;33.90;22.52;;;;;;;6.56;92.10;99381.47;5005225;28;20042;-75
2023/10/19 06:38:54;;;;;;;29.98;21.67;;;;;;;6.54;92.67;99377.28;5009708;28;20069;-74
2023/10/19 06:41:23;;;;;;;33.13;21.77;;;;;;;6.52;92.81;99371.28;4994365;28;20596;-74
2023/10/19 06:43:51;;;;;;;33.10;22.30;;;;;;;6.52;92.85;99373.91;5009935;28;20049;-74
2023/10/19 06:46:19;;;;;;;34.20;22.75;;;;;;;6.52;93.85;99358.22;5027515;28;20041;-74
2023/10/19 06:48:47;;;;;;;33.83;22.88;;;;;;;6.52;93.55;99356.44;5008868;28;21135;-74
2023/10/19 06:51:17;;;;;;;32.08;22.55;;;;;;;6.50;94.16;99350.47;5008012;28;20057;-76
2023/10/19 06:53:45;;;;;;;39.20;24.15;;;;;;;6.50;94.75;99349.63;5010033;28;20397;-76
2023/10/19 06:56:13;;;;;;;35.10;23.15;;;;;;;6.47;95.05;99350.66;5011467;28;20046;-77
2023/10/19 06:58:42;;;;;;;38.22;24.52;;;;;;;6.46;95.31;99350.75;4995268;28;20053;-75
2023/10/19 07:01:09;;;;;;;33.10;22.10;;;;;;;6.48;95.10;99341.03;4994061;28;20062;-76
2023/10/19 07:03:37;;;;;;;41.92;24.17;;;;;;;6.51;95.02;99339.06;5008544;28;20050;-74
2023/10/19 07:06:07;;;;;;;37.45;25.27;;;;;;;6.52;95.10;99345.13;5007949;28;21773;-75
2023/10/19 07:08:43;;;;;;;38.30;23.92;;;;;;;6.57;95.02;99330.88;4995434;28;20096;-74
2023/10/19 07:11:10;;;;;;;35.15;22.80;;;;;;;6.65;95.58;99343.44;5005804;28;20108;-75
2023/10/19 07:13:39;;;;;;;33.97;23.40;;;;;;;6.69;95.20;99336.25;5004983;28;20107;-76
2023/10/19 07:16:11;;;;;;;36.42;23.92;;;;;;;6.74;95.31;99323.72;5007376;28;20107;-77
2023/10/19 07:18:39;;;;;;;38.05;26.33;;;;;;;6.79;95.08;99330.31;5003447;28;20686;-74
2023/10/19 07:21:09;;;;;;;37.38;24.65;;;;;;;6.84;94.92;99319.56;5012036;28;20127;-75
2023/10/19 07:23:38;;;;;;;40.13;25.08;;;;;;;6.84;95.19;99320.44;4990858;28;20571;-75
2023/10/19 07:26:06;;;;;;;35.63;24.92;;;;;;;6.84;94.52;99325.66;5002952;28;20291;-75
2023/10/19 07:28:33;;;;;;;33.88;21.23;;;;;;;6.90;94.88;99321.78;5005674;28;20050;-76
2023/10/19 07:31:12;;;;;;;34.17;22.08;;;;;;;6.96;93.85;99317.94;4986483;28;20053;-75
2023/10/19 07:33:45;;;;;;;32.28;21.58;;;;;;;7.01;93.80;99319.31;5002870;28;20052;-75
2023/10/19 07:36:18;;;;;;;42.33;22.52;;;;;;;7.06;93.37;99319.00;5005085;28;20046;-76
2023/10/19 07:38:47;;;;;;;34.03;22.92;;;;;;;7.11;93.42;99319.53;4999870;28;20042;-76
2023/10/19 07:41:15;;;;;;;33.90;22.17;;;;;;;7.17;93.33;99326.19;5009222;28;20045;-75
2023/10/19 07:43:44;;;;;;;31.08;22.98;;;;;;;7.18;92.71;99327.84;4998565;28;20476;-76
2023/10/19 07:46:11;;;;;;;32.50;21.60;;;;;;;7.23;92.82;99333.63;5004449;28;20058;-76
2023/10/19 07:48:39;;;;;;;32.72;22.25;;;;;;;7.26;92.61;99343.91;5004042;28;20516;-75
2023/10/19 07:51:11;;;;;;;37.90;21.05;;;;;;;7.29;92.57;99341.88;5005124;28;20054;-76
2023/10/19 07:53:38;;;;;;;35.28;22.27;;;;;;;7.33;92.20;99337.31;4989411;28;20509;-75
2023/10/19 07:56:07;;;;;;;31.00;21.92;;;;;;;7.34;91.43;99336.38;5007002;28;20108;-76
2023/10/19 07:58:34;;;;;;;37.50;22.42;;;;;;;7.34;91.61;99339.00;4989519;28;20654;-76
2023/10/19 08:01:02;;;;;;;32.33;21.00;;;;;;;7.38;91.33;99327.34;5004942;28;20042;-75
2023/10/19 08:03:30;;;;;;;31.00;21.35;;;;;;;7.38;91.15;99324.75;5003834;28;20476;-77
2023/10/19 08:05:58;;;;;;;27.52;19.63;;;;;;;7.42;90.65;99335.84;4988840;28;20492;-77
2023/10/19 08:08:33;;;;;;;31.55;20.63;;;;;;;7.40;89.86;99332.50;5004371;28;20062;-76
2023/10/19 08:11:01;;;;;;;32.42;21.08;;;;;;;7.39;89.75;99328.22;5000958;28;20149;-76
2023/10/19 08:13:32;;;;;;;30.10;20.15;;;;;;;7.39;89.60;99331.69;4999453;28;20049;-77
2023/10/19 08:16:01;;;;;;;26.95;19.00;;;;;;;7.40;90.19;99325.50;4971077;28;20065;-75
2023/10/19 08:18:35;;;;;;;29.17;19.98;;;;;;;7.42;89.09;99326.22;4974663;28;20044;-77
2023/10/19 08:21:03;;;;;;;29.13;20.38;;;;;;;7.35;89.66;99327.59;5009461;28;20481;-74
2023/10/19 08:23:31;;;;;;;27.10;18.67;;;;;;;7.37;89.26;99317.84;5008959;28;20046;-77
2023/10/19 08:26:02;;;;;;;29.20;19.70;;;;;;;7.41;89.13;99321.94;5007196;28;20038;-76
2023/10/19 08:28:32;;;;;;;27.85;20.33;;;;;;;7.44;88.43;99308.63;5008316;28;20148;-75
2023/10/19 08:31:10;;;;;;;31.63;20.52;;;;;;;7.52;88.38;99302.88;4975830;28;20136;-75
2023/10/19 08:33:38;;;;;;;31.20;19.48;;;;;;;7.54;88.76;99299.22;5005913;28;20044;-77
2023/10/19 08:36:17;;;;;;;26.67;18.65;;;;;;;7.62;88.57;99290.84;4992037;28;20038;-79
2023/10/19 08:38:47;;;;;;;27.98;19.63;;;;;;;7.67;88.80;99298.41;4985627;28;20058;-74
2023/10/19 08:41:15;;;;;;;28.98;20.23;;;;;;;7.75;88.38;99293.47;4988681;28;20069;-76
2023/10/19 08:43:43;;;;;;;28.48;19.67;;;;;;;7.81;87.96;99296.50;4988951;28;20052;-76
2023/10/19 08:46:12;;;;;;;32.03;20.33;;;;;;;7.82;87.51;99277.22;5002466;28;20058;-77
2023/10/19 08:48:41;;;;;;;31.02;20.05;;;;;;;7.90;87.60;99266.22;5002987;28;20487;-74
2023/10/19 08:51:10;;;;;;;30.23;18.90;;;;;;;7.96;87.14;99262.31;5003105;28;20050;-77
2023/10/19 08:53:41;;;;;;;28.70;18.88;;;;;;;8.03;87.25;99272.28;4993274;28;20077;-76
2023/10/19 08:56:08;;;;;;;28.63;18.63;;;;;;;8.03;86.92;99268.81;5008914;28;20042;-78
2023/10/19 08:58:37;;;;;;;26.73;19.08;;;;;;;8.05;86.88;99280.84;4987012;28;20049;-75
2023/10/19 09:01:09;;;;;;;28.83;18.90;;;;;;;8.09;86.52;99276.25;5003558;28;20050;-77
2023/10/19 09:03:38;;;;;;;29.42;19.02;;;;;;;8.09;86.81;99268.38;4984976;28;20069;-75
2023/10/19 09:06:06;;;;;;;24.50;18.88;;;;;;;8.11;86.67;99280.44;5006219;28;20053;-75
2023/10/19 09:08:40;;;;;;;26.83;17.67;;;;;;;8.21;86.46;99271.94;5016480;28;20057;-75
2023/10/19 09:11:11;;;;;;;33.50;20.35;;;;;;;8.30;85.91;99279.13;4983692;28;20034;-76
2023/10/19 09:13:48;;;;;;;29.02;20.45;;;;;;;8.27;86.32;99281.97;5002599;28;20127;-75
2023/10/19 09:16:18;;;;;;;28.75;18.70;;;;;;;8.38;86.26;99276.84;4985020;28;20054;-75
2023/10/19 09:18:51;;;;;;;27.13;18.40;;;;;;;8.44;85.65;99284.25;4987656;28;20369;-76
2023/10/19 09:21:26;;;;;;;31.05;19.90;;;;;;;8.52;86.03;99279.31;5002536;28;20049;-75
2023/10/19 09:23:57;;;;;;;26.55;17.90;;;;;;;8.65;85.69;99270.56;5003178;28;20563;-76
2023/10/19 09:26:25;;;;;;;29.58;19.15;;;;;;;8.61;84.83;99264.69;5002594;28;20050;-77
2023/10/19 09:28:55;;;;;;;26.45;18.08;;;;;;;8.55;84.89;99252.00;4988747;28;20065;-76
2023/10/19 09:31:24;;;;;;;30.48;18.67;;;;;;;8.56;85.45;99251.91;4983165;28;20050;-78
2023/10/19 09:33:54;;;;;;;26.92;17.90;;;;;;;8.59;85.64;99251.69;4994237;28;20104;-75
2023/10/19 09:36:23;;;;;;;26.30;19.65;;;;;;;8.57;85.49;99255.38;4999574;28;20064;-75
2023/10/19 09:38:51;;;;;;;27.70;18.70;;;;;;;8.59;85.57;99248.22;5000539;28;20422;-76
2023/10/19 09:41:22;;;;;;;25.48;17.80;;;;;;;8.60;85.46;99248.13;4987657;28;20077;-76
2023/10/19 09:43:51;;;;;;;25.60;19.15;;;;;;;8.68;85.03;99246.72;4968938;28;20053;-75
2023/10/19 09:46:28;;;;;;;30.55;18.10;;;;;;;8.74;85.61;99249.75;4989729;28;20108;-76
2023/10/19 09:48:55;;;;;;;25.05;17.75;;;;;;;8.82;85.12;99247.38;4990122;28;20056;-76
2023/10/19 09:51:24;;;;;;;27.05;18.60;;;;;;;8.92;85.04;99252.81;4973851;28;20038;-75
2023/10/19 09:54:14;;;;;;;25.42;17.38;;;;;;;8.93;84.85;99249.22;4995765;28;20054;-76
2023/10/19 09:56:45;;;;;;;29.45;17.25;;;;;;;8.87;84.93;99250.50;5004028;28;20041;-76
2023/10/19 09:59:26;;;;;;;23.75;17.30;;;;;;;8.77;84.99;99249.50;4990800;28;20050;-76
2023/10/19 10:02:12;;;;;;;23.08;18.30;;;;;;;8.70;86.29;99245.66;4990519;28;20049;-75
2023/10/19 10:04:44;;;;;;;28.63;18.52;;;;;;;8.65;85.72;99242.53;4972131;28;20081;-76
2023/10/19 10:07:13;;;;;;;27.20;18.05;;;;;;;8.65;86.17;99236.47;5005996;28;20053;-76
2023/10/19 10:09:48;;;;;;;35.53;18.75;;;;;;;8.64;86.07;99227.72;4990749;28;20050;-75
2023/10/19 10:12:21;;;;;;;26.90;18.05;;;;;;;8.63;86.61;99239.19;5005630;28;20476;-76
2023/10/19 10:15:08;;;;;;;29.67;18.55;;;;;;;8.67;86.24;99242.44;4990468;28;20128;-75
2023/10/19 10:17:38;;;;;;;25.85;18.48;;;;;;;8.64;87.14;99235.59;5008315;28;20133;-76
2023/10/19 10:20:34;;;;;;;28.15;20.70;;;;;;;8.63;87.63;99232.16;5005356;28;20397;-76
2023/10/19 10:23:31;;;;;;;24.98;17.73;;;;;;;8.63;87.42;99228.69;5020670;28;20054;-76
2023/10/19 10:26:00;;;;;;;32.67;18.73;;;;;;;8.62;87.72;99234.88;4989495;28;20052;-76
2023/10/19 10:28:29;;;;;;;24.15;17.17;;;;;;;8.65;88.14;99241.72;4989741;28;20588;-76
2023/10/19 10:31:21;;;;;;;27.95;17.80;;;;;;;8.62;88.81;99230.47;4989046;28;20224;-76
2023/10/19 10:33:52;;;;;;;27.63;18.67;;;;;;;8.66;88.38;99225.00;5000808;28;20153;-76
2023/10/19 10:36:21;;;;;;;27.58;18.88;;;;;;;8.67;89.00;99216.19;4989640;28;20540;-75
2023/10/19 10:38:50;;;;;;;29.13;19.52;;;;;;;8.67;91.24;99203.91;5008525;28;20041;-76
2023/10/19 10:41:27;;;;;;;25.77;20.27;;;;;;;8.64;91.17;99196.25;5004935;28;20054;-75
2023/10/19 10:43:56;;;;;;;32.72;22.75;;;;;;;8.55;93.30;99203.00;4992823;28;20050;-75
2023/10/19 10:46:29;;;;;;;33.80;19.30;;;;;;;8.50;93.71;99199.06;4989296;28;20045;-75
2023/10/19 10:48:58;;;;;;;29.98;19.65;;;;;;;8.56;93.69;99188.97;5004868;28;20056;-75
2023/10/19 10:51:28;;;;;;;30.15;21.55;;;;;;;8.51;94.56;99190.22;5006449;28;20041;-75
2023/10/19 10:53:57;;;;;;;30.33;22.85;;;;;;;8.48;94.68;99186.06;5005012;28;20045;-75
2023/10/19 10:56:24;;;;;;;28.17;20.65;;;;;;;8.48;95.65;99187.84;5000542;28;20089;-75
2023/10/19 10:58:52;;;;;;;28.02;20.17;;;;;;;8.43;94.91;99187.34;4989659;28;20634;-76
2023/10/19 11:01:32;;;;;;;30.67;20.30;;;;;;;8.40;95.05;99201.50;4988077;28;20054;-75
2023/10/19 11:04:08;;;;;;;29.73;21.17;;;;;;;8.40;95.04;99200.69;5001536;28;22077;-75
2023/10/19 11:06:53;;;;;;;26.17;20.00;;;;;;;8.39;95.20;99193.78;4988365;28;20053;-75
2023/10/19 11:09:21;;;;;;;31.80;21.60;;;;;;;8.36;95.77;99194.78;5004979;28;20373;-75
2023/10/19 11:11:49;;;;;;;28.70;20.17;;;;;;;8.35;95.94;99188.69;5017792;28;20526;-75
2023/10/19 11:14:17;;;;;;;30.98;21.92;;;;;;;8.30;96.95;99195.25;5001817;28;20661;-75
2023/10/19 11:16:45;;;;;;;33.05;22.48;;;;;;;8.30;96.62;99195.25;5001112;28;20128;-75
2023/10/19 11:19:12;;;;;;;31.23;22.08;;;;;;;8.32;96.19;99195.94;4975886;28;20397;-74
2023/10/19 11:21:52;;;;;;;29.67;20.52;;;;;;;8.30;96.12;99193.44;5018975;28;20085;-75
2023/10/19 11:24:26;;;;;;;33.22;23.08;;;;;;;8.25;98.13;99181.63;5003161;28;20049;-75
2023/10/19 11:26:54;;;;;;;31.38;21.85;;;;;;;8.23;97.50;99180.88;5003227;28;20050;-75
2023/10/19 11:29:22;;;;;;;36.65;23.30;;;;;;;8.25;98.35;99184.25;5004566;28;20053;-76
2023/10/19 11:32:02;;;;;;;29.85;22.40;;;;;;;8.23;98.95;99178.25;4983356;28;20169;-76
2023/10/19 11:34:30;;;;;;;27.02;20.85;;;;;;;8.17;100.00;99169.06;5018710;28;20062;-76
2023/10/19 11:37:03;;;;;;;31.92;23.98;;;;;;;8.12;100.00;99169.41;4999071;28;20108;-76
2023/10/19 11:39:31;;;;;;;29.15;21.27;;;;;;;8.13;100.00;99165.81;5006630;28;20054;-75
2023/10/19 11:41:58;;;;;;;31.33;22.20;;;;;;;8.20;100.00;99165.41;4988842;28;20058;-77
2023/10/19 11:44:25;;;;;;;33.40;22.70;;;;;;;8.22;100.00;99163.50;5019167;28;20057;-76
2023/10/19 11:46:53;;;;;;;30.98;22.10;;;;;;;8.23;100.00;99152.88;5004531;28;20136;-75
2023/10/19 11:49:20;;;;;;;33.72;21.65;;;;;;;8.27;100.00;99150.88;5016472;28;20054;-75
2023/10/19 11:51:52;;;;;;;30.08;22.10;;;;;;;8.22;100.00;99153.84;5004364;28;20053;-76
2023/10/19 11:54:21;;;;;;;36.47;23.67;;;;;;;8.17;100.00;99147.25;4986216;28;20058;-75
2023/10/19 11:56:49;;;;;;;37.83;22.88;;;;;;;8.15;100.00;99143.91;5000897;28;20100;-75
2023/10/19 11:59:16;;;;;;;32.28;22.52;;;;;;;8.19;100.00;99137.47;5000850;28;20062;-75
2023/10/19 12:01:44;;;;;;;33.38;22.83;;;;;;;8.24;100.00;99140.59;4986022;28;20050;-75
2023/10/19 12:04:11;;;;;;;32.28;22.65;;;;;;;8.24;100.00;99136.22;5000489;28;20191;-76
2023/10/19 12:06:39;;;;;;;28.77;22.42;;;;;;;8.26;100.00;99138.72;5017759;28;20077;-76
2023/10/19 12:09:14;;;;;;;35.80;24.17;;;;;;;8.29;100.00;99141.13;5002156;28;20030;-75
2023/10/19 12:11:44;;;;;;;31.90;23.15;;;;;;;8.28;100.00;99139.44;4985737;28;20044;-75